sensor_id;sensor_type;location;lat;lon;timestamp;P1;durP1;ratioP1;P2;durP2;ratioP2
41201;SDS011;26936;50.524;8.684;2023-09-18T00:02:04;10.77;;;7.68;;
41201;SDS011;26936;50.524;8.684;2023-09-18T00:04:29;14.75;;;7.85;;
41201;SDS011;26936;50.524;8.684;2023-09-18T00:06:54;15.33;;;8.27;;
41201;SDS011;26936;50.524;8.684;2023-09-18T00:09:20;15.23;;;7.80;;
41201;SDS011;26936;50.524;8.684;2023-09-18T00:11:45;12.93;;;7.27;;
41201;SDS011;26936;50.524;8.684;2023-09-18T00:14:10;12.73;;;7.00;;
41201;SDS011;26936;50.524;8.684;2023-09-18T00:16:36;10.88;;;6.85;;
41201;SDS011;26936;50.524;8.684;2023-09-18T00:19:01;14.90;;;8.18;;
41201;SDS011;26936;50.524;8.684;2023-09-18T00:21:27;15.32;;;8.65;;
41201;SDS011;26936;50.524;8.684;2023-09-18T00:23:55;13.20;;;7.68;;
41201;SDS011;26936;50.524;8.684;2023-09-18T00:26:22;12.43;;;8.10;;
41201;SDS011;26936;50.524;8.684;2023-09-18T00:28:48;12.27;;;7.93;;
41201;SDS011;26936;50.524;8.684;2023-09-18T00:31:13;13.50;;;8.00;;
41201;SDS011;26936;50.524;8.684;2023-09-18T00:33:38;12.10;;;8.07;;
41201;SDS011;26936;50.524;8.684;2023-09-18T00:36:04;13.75;;;7.75;;
41201;SDS011;26936;50.524;8.684;2023-09-18T00:38:29;15.52;;;8.85;;
41201;SDS011;26936;50.524;8.684;2023-09-18T00:40:54;12.15;;;7.90;;
41201;SDS011;26936;50.524;8.684;2023-09-18T00:43:20;13.55;;;8.13;;
41201;SDS011;26936;50.524;8.684;2023-09-18T00:45:46;14.48;;;8.00;;
41201;SDS011;26936;50.524;8.684;2023-09-18T00:48:14;14.90;;;8.15;;
41201;SDS011;26936;50.524;8.684;2023-09-18T00:50:40;7.60;;;6.55;;
41201;SDS011;26936;50.524;8.684;2023-09-18T00:53:09;11.57;;;5.72;;
41201;SDS011;26936;50.524;8.684;2023-09-18T00:55:37;12.93;;;5.90;;
41201;SDS011;26936;50.524;8.684;2023-09-18T00:58:03;8.77;;;4.82;;
41201;SDS011;26936;50.524;8.684;2023-09-18T01:00:30;12.52;;;5.68;;
41201;SDS011;26936;50.524;8.684;2023-09-18T01:02:55;11.93;;;5.50;;
41201;SDS011;26936;50.524;8.684;2023-09-18T01:05:20;10.32;;;5.18;;
41201;SDS011;26936;50.524;8.684;2023-09-18T01:07:46;6.50;;;4.43;;
41201;SDS011;26936;50.524;8.684;2023-09-18T01:10:11;8.38;;;5.15;;
41201;SDS011;26936;50.524;8.684;2023-09-18T01:12:48;7.10;;;4.47;;
41201;SDS011;26936;50.524;8.684;2023-09-18T01:15:26;10.45;;;5.05;;
41201;SDS011;26936;50.524;8.684;2023-09-18T01:18:02;8.13;;;4.72;;
41201;SDS011;26936;50.524;8.684;2023-09-18T01:20:28;12.25;;;5.43;;
41201;SDS011;26936;50.524;8.684;2023-09-18T01:22:53;9.77;;;4.80;;
41201;SDS011;26936;50.524;8.684;2023-09-18T01:25:18;8.48;;;4.78;;
41201;SDS011;26936;50.524;8.684;2023-09-18T01:27:44;7.50;;;5.15;;
41201;SDS011;26936;50.524;8.684;2023-09-18T01:30:09;11.48;;;5.10;;
41201;SDS011;26936;50.524;8.684;2023-09-18T01:32:35;9.05;;;5.13;;
41201;SDS011;26936;50.524;8.684;2023-09-18T01:35:02;8.27;;;4.75;;
41201;SDS011;26936;50.524;8.684;2023-09-18T01:37:31;13.10;;;5.60;;
41201;SDS011;26936;50.524;8.684;2023-09-18T01:39:56;9.60;;;5.72;;
41201;SDS011;26936;50.524;8.684;2023-09-18T01:42:24;10.98;;;6.15;;
41201;SDS011;26936;50.524;8.684;2023-09-18T01:44:50;10.52;;;6.10;;
41201;SDS011;26936;50.524;8.684;2023-09-18T01:47:16;10.70;;;6.00;;
41201;SDS011;26936;50.524;8.684;2023-09-18T01:49:43;10.73;;;5.95;;
41201;SDS011;26936;50.524;8.684;2023-09-18T01:52:09;11.13;;;5.72;;
41201;SDS011;26936;50.524;8.684;2023-09-18T01:54:34;9.82;;;5.97;;
41201;SDS011;26936;50.524;8.684;2023-09-18T01:57:00;9.35;;;4.72;;
41201;SDS011;26936;50.524;8.684;2023-09-18T01:59:27;10.45;;;5.00;;
41201;SDS011;26936;50.524;8.684;2023-09-18T02:01:53;8.13;;;4.80;;
41201;SDS011;26936;50.524;8.684;2023-09-18T02:04:19;7.15;;;4.07;;
41201;SDS011;26936;50.524;8.684;2023-09-18T02:06:46;8.00;;;4.63;;
41201;SDS011;26936;50.524;8.684;2023-09-18T02:09:12;9.95;;;4.18;;
41201;SDS011;26936;50.524;8.684;2023-09-18T02:11:39;8.95;;;3.92;;
41201;SDS011;26936;50.524;8.684;2023-09-18T02:14:06;6.25;;;3.60;;
41201;SDS011;26936;50.524;8.684;2023-09-18T02:16:33;5.28;;;3.80;;
41201;SDS011;26936;50.524;8.684;2023-09-18T02:18:59;6.20;;;4.28;;
41201;SDS011;26936;50.524;8.684;2023-09-18T02:21:24;4.95;;;4.20;;
41201;SDS011;26936;50.524;8.684;2023-09-18T02:23:50;8.68;;;4.22;;
41201;SDS011;26936;50.524;8.684;2023-09-18T02:26:17;5.95;;;4.13;;
41201;SDS011;26936;50.524;8.684;2023-09-18T02:28:43;7.95;;;4.78;;
41201;SDS011;26936;50.524;8.684;2023-09-18T02:31:08;8.48;;;4.97;;
41201;SDS011;26936;50.524;8.684;2023-09-18T02:33:33;8.60;;;4.93;;
41201;SDS011;26936;50.524;8.684;2023-09-18T02:35:59;8.17;;;4.30;;
41201;SDS011;26936;50.524;8.684;2023-09-18T02:38:24;9.50;;;4.70;;
41201;SDS011;26936;50.524;8.684;2023-09-18T02:40:49;10.20;;;4.82;;
41201;SDS011;26936;50.524;8.684;2023-09-18T02:43:15;7.30;;;5.00;;
41201;SDS011;26936;50.524;8.684;2023-09-18T02:45:40;14.30;;;6.37;;
41201;SDS011;26936;50.524;8.684;2023-09-18T02:48:05;10.90;;;5.90;;
41201;SDS011;26936;50.524;8.684;2023-09-18T02:50:31;8.75;;;4.45;;
41201;SDS011;26936;50.524;8.684;2023-09-18T02:52:56;9.80;;;5.23;;
41201;SDS011;26936;50.524;8.684;2023-09-18T02:55:21;9.30;;;5.80;;
41201;SDS011;26936;50.524;8.684;2023-09-18T02:57:46;12.17;;;6.00;;
41201;SDS011;26936;50.524;8.684;2023-09-18T03:00:12;10.48;;;6.32;;
41201;SDS011;26936;50.524;8.684;2023-09-18T03:02:38;10.52;;;6.20;;
41201;SDS011;26936;50.524;8.684;2023-09-18T03:05:03;9.57;;;6.03;;
41201;SDS011;26936;50.524;8.684;2023-09-18T03:07:29;9.73;;;6.63;;
41201;SDS011;26936;50.524;8.684;2023-09-18T03:09:55;9.02;;;6.43;;
41201;SDS011;26936;50.524;8.684;2023-09-18T03:12:20;11.18;;;7.28;;
41201;SDS011;26936;50.524;8.684;2023-09-18T03:14:47;11.98;;;6.90;;
41201;SDS011;26936;50.524;8.684;2023-09-18T03:17:12;14.55;;;6.35;;
41201;SDS011;26936;50.524;8.684;2023-09-18T03:19:37;9.00;;;6.23;;
41201;SDS011;26936;50.524;8.684;2023-09-18T03:22:03;11.63;;;6.63;;
41201;SDS011;26936;50.524;8.684;2023-09-18T03:24:28;10.82;;;6.30;;
41201;SDS011;26936;50.524;8.684;2023-09-18T03:26:53;10.33;;;5.87;;
41201;SDS011;26936;50.524;8.684;2023-09-18T03:29:19;8.70;;;5.60;;
41201;SDS011;26936;50.524;8.684;2023-09-18T03:31:44;6.90;;;5.33;;
41201;SDS011;26936;50.524;8.684;2023-09-18T03:34:09;8.60;;;5.53;;
41201;SDS011;26936;50.524;8.684;2023-09-18T03:36:35;7.53;;;5.43;;
41201;SDS011;26936;50.524;8.684;2023-09-18T03:39:01;8.15;;;4.97;;
41201;SDS011;26936;50.524;8.684;2023-09-18T03:41:27;12.07;;;5.30;;
41201;SDS011;26936;50.524;8.684;2023-09-18T03:43:52;7.17;;;5.17;;
41201;SDS011;26936;50.524;8.684;2023-09-18T03:46:17;8.50;;;5.33;;
41201;SDS011;26936;50.524;8.684;2023-09-18T03:48:42;7.45;;;5.07;;
41201;SDS011;26936;50.524;8.684;2023-09-18T03:51:08;7.50;;;5.23;;
41201;SDS011;26936;50.524;8.684;2023-09-18T03:53:33;9.55;;;5.07;;
41201;SDS011;26936;50.524;8.684;2023-09-18T03:55:59;8.45;;;5.28;;
41201;SDS011;26936;50.524;8.684;2023-09-18T03:58:25;7.82;;;5.35;;
41201;SDS011;26936;50.524;8.684;2023-09-18T04:00:50;7.63;;;5.35;;
41201;SDS011;26936;50.524;8.684;2023-09-18T04:03:16;18.10;;;5.88;;
41201;SDS011;26936;50.524;8.684;2023-09-18T04:05:41;8.35;;;5.00;;
41201;SDS011;26936;50.524;8.684;2023-09-18T04:08:07;8.50;;;5.03;;
41201;SDS011;26936;50.524;8.684;2023-09-18T04:10:32;10.03;;;5.63;;
41201;SDS011;26936;50.524;8.684;2023-09-18T04:12:58;11.32;;;5.43;;
41201;SDS011;26936;50.524;8.684;2023-09-18T04:15:23;9.45;;;6.00;;
41201;SDS011;26936;50.524;8.684;2023-09-18T04:17:48;8.95;;;5.50;;
41201;SDS011;26936;50.524;8.684;2023-09-18T04:20:14;7.95;;;5.93;;
41201;SDS011;26936;50.524;8.684;2023-09-18T04:22:46;10.93;;;5.32;;
41201;SDS011;26936;50.524;8.684;2023-09-18T04:25:15;12.90;;;5.63;;
41201;SDS011;26936;50.524;8.684;2023-09-18T04:27:41;8.57;;;5.78;;
41201;SDS011;26936;50.524;8.684;2023-09-18T04:30:07;10.63;;;5.70;;
41201;SDS011;26936;50.524;8.684;2023-09-18T04:32:34;12.75;;;5.93;;
41201;SDS011;26936;50.524;8.684;2023-09-18T04:35:02;10.82;;;5.90;;
41201;SDS011;26936;50.524;8.684;2023-09-18T04:37:30;9.88;;;5.60;;
41201;SDS011;26936;50.524;8.684;2023-09-18T04:39:57;9.65;;;5.65;;
41201;SDS011;26936;50.524;8.684;2023-09-18T04:42:22;7.00;;;5.30;;
41201;SDS011;26936;50.524;8.684;2023-09-18T04:44:47;8.43;;;5.27;;
41201;SDS011;26936;50.524;8.684;2023-09-18T04:47:13;7.97;;;5.43;;
41201;SDS011;26936;50.524;8.684;2023-09-18T04:49:38;10.00;;;5.65;;
41201;SDS011;26936;50.524;8.684;2023-09-18T04:52:03;9.30;;;5.63;;
41201;SDS011;26936;50.524;8.684;2023-09-18T04:54:30;11.73;;;5.30;;
41201;SDS011;26936;50.524;8.684;2023-09-18T04:56:56;12.52;;;5.63;;
41201;SDS011;26936;50.524;8.684;2023-09-18T04:59:21;11.13;;;4.90;;
41201;SDS011;26936;50.524;8.684;2023-09-18T05:01:46;7.60;;;4.75;;
41201;SDS011;26936;50.524;8.684;2023-09-18T05:04:11;7.07;;;4.78;;
41201;SDS011;26936;50.524;8.684;2023-09-18T05:06:37;9.48;;;4.93;;
41201;SDS011;26936;50.524;8.684;2023-09-18T05:09:04;8.65;;;5.43;;
41201;SDS011;26936;50.524;8.684;2023-09-18T05:11:30;11.32;;;6.03;;
41201;SDS011;26936;50.524;8.684;2023-09-18T05:13:56;11.82;;;5.43;;
41201;SDS011;26936;50.524;8.684;2023-09-18T05:16:21;12.43;;;5.05;;
41201;SDS011;26936;50.524;8.684;2023-09-18T05:18:47;7.18;;;4.93;;
41201;SDS011;26936;50.524;8.684;2023-09-18T05:21:12;9.13;;;4.90;;
41201;SDS011;26936;50.524;8.684;2023-09-18T05:23:37;8.18;;;4.85;;
41201;SDS011;26936;50.524;8.684;2023-09-18T05:26:02;8.53;;;5.33;;
41201;SDS011;26936;50.524;8.684;2023-09-18T05:28:28;8.88;;;5.20;;
41201;SDS011;26936;50.524;8.684;2023-09-18T05:30:53;9.03;;;4.83;;
41201;SDS011;26936;50.524;8.684;2023-09-18T05:33:18;6.40;;;4.90;;
41201;SDS011;26936;50.524;8.684;2023-09-18T05:35:45;9.98;;;5.07;;
41201;SDS011;26936;50.524;8.684;2023-09-18T05:38:10;8.82;;;4.40;;
41201;SDS011;26936;50.524;8.684;2023-09-18T05:40:38;7.72;;;4.90;;
41201;SDS011;26936;50.524;8.684;2023-09-18T05:43:03;6.88;;;4.10;;
41201;SDS011;26936;50.524;8.684;2023-09-18T05:45:29;9.43;;;4.30;;
41201;SDS011;26936;50.524;8.684;2023-09-18T05:47:56;8.75;;;4.70;;
41201;SDS011;26936;50.524;8.684;2023-09-18T05:50:31;11.00;;;4.82;;
41201;SDS011;26936;50.524;8.684;2023-09-18T05:52:57;8.38;;;4.82;;
41201;SDS011;26936;50.524;8.684;2023-09-18T05:55:29;7.32;;;4.25;;
41201;SDS011;26936;50.524;8.684;2023-09-18T05:57:55;8.65;;;4.35;;
41201;SDS011;26936;50.524;8.684;2023-09-18T06:00:20;11.15;;;4.40;;
41201;SDS011;26936;50.524;8.684;2023-09-18T06:02:46;8.70;;;4.70;;
41201;SDS011;26936;50.524;8.684;2023-09-18T06:05:12;9.05;;;4.50;;
41201;SDS011;26936;50.524;8.684;2023-09-18T06:07:37;7.13;;;4.20;;
41201;SDS011;26936;50.524;8.684;2023-09-18T06:10:02;11.33;;;8.37;;
41201;SDS011;26936;50.524;8.684;2023-09-18T06:12:28;10.45;;;4.38;;
41201;SDS011;26936;50.524;8.684;2023-09-18T06:14:55;8.85;;;4.30;;
41201;SDS011;26936;50.524;8.684;2023-09-18T06:17:20;10.07;;;4.65;;
41201;SDS011;26936;50.524;8.684;2023-09-18T06:19:46;8.57;;;3.83;;
41201;SDS011;26936;50.524;8.684;2023-09-18T06:22:11;11.20;;;4.57;;
41201;SDS011;26936;50.524;8.684;2023-09-18T06:24:37;9.10;;;4.00;;
41201;SDS011;26936;50.524;8.684;2023-09-18T06:27:03;6.95;;;3.75;;
41201;SDS011;26936;50.524;8.684;2023-09-18T06:29:32;9.65;;;4.60;;
41201;SDS011;26936;50.524;8.684;2023-09-18T06:31:58;7.80;;;4.75;;
41201;SDS011;26936;50.524;8.684;2023-09-18T06:34:23;9.63;;;4.57;;
41201;SDS011;26936;50.524;8.684;2023-09-18T06:36:48;7.70;;;4.27;;
41201;SDS011;26936;50.524;8.684;2023-09-18T06:39:14;10.88;;;5.32;;
41201;SDS011;26936;50.524;8.684;2023-09-18T06:41:40;7.20;;;4.20;;
41201;SDS011;26936;50.524;8.684;2023-09-18T06:44:05;9.05;;;4.68;;
41201;SDS011;26936;50.524;8.684;2023-09-18T06:46:31;7.53;;;4.50;;
41201;SDS011;26936;50.524;8.684;2023-09-18T06:48:56;10.73;;;4.47;;
41201;SDS011;26936;50.524;8.684;2023-09-18T06:51:22;7.60;;;3.72;;
41201;SDS011;26936;50.524;8.684;2023-09-18T06:53:48;13.02;;;4.43;;
41201;SDS011;26936;50.524;8.684;2023-09-18T06:56:13;9.07;;;4.50;;
41201;SDS011;26936;50.524;8.684;2023-09-18T06:58:38;11.27;;;4.75;;
41201;SDS011;26936;50.524;8.684;2023-09-18T07:01:04;13.43;;;5.30;;
41201;SDS011;26936;50.524;8.684;2023-09-18T07:03:31;10.38;;;4.72;;
41201;SDS011;26936;50.524;8.684;2023-09-18T07:05:59;8.75;;;4.53;;
41201;SDS011;26936;50.524;8.684;2023-09-18T07:08:25;11.85;;;4.95;;
41201;SDS011;26936;50.524;8.684;2023-09-18T07:10:50;12.93;;;4.97;;
41201;SDS011;26936;50.524;8.684;2023-09-18T07:13:15;10.15;;;5.22;;
41201;SDS011;26936;50.524;8.684;2023-09-18T07:15:41;12.45;;;4.72;;
41201;SDS011;26936;50.524;8.684;2023-09-18T07:18:06;8.35;;;5.00;;
41201;SDS011;26936;50.524;8.684;2023-09-18T07:20:31;12.05;;;4.78;;
41201;SDS011;26936;50.524;8.684;2023-09-18T07:22:57;8.82;;;4.10;;
41201;SDS011;26936;50.524;8.684;2023-09-18T07:25:22;8.65;;;4.18;;
41201;SDS011;26936;50.524;8.684;2023-09-18T07:27:48;8.30;;;4.18;;
41201;SDS011;26936;50.524;8.684;2023-09-18T07:30:13;9.40;;;3.92;;
41201;SDS011;26936;50.524;8.684;2023-09-18T07:32:44;11.38;;;4.15;;
41201;SDS011;26936;50.524;8.684;2023-09-18T07:35:10;10.63;;;4.28;;
41201;SDS011;26936;50.524;8.684;2023-09-18T07:37:38;6.75;;;3.55;;
41201;SDS011;26936;50.524;8.684;2023-09-18T07:40:04;9.48;;;3.88;;
41201;SDS011;26936;50.524;8.684;2023-09-18T07:42:30;12.23;;;4.00;;
41201;SDS011;26936;50.524;8.684;2023-09-18T07:44:55;7.90;;;3.70;;
41201;SDS011;26936;50.524;8.684;2023-09-18T07:47:21;6.90;;;3.92;;
41201;SDS011;26936;50.524;8.684;2023-09-18T07:49:47;14.07;;;4.45;;
41201;SDS011;26936;50.524;8.684;2023-09-18T07:52:13;8.73;;;3.88;;
41201;SDS011;26936;50.524;8.684;2023-09-18T07:54:38;8.10;;;3.80;;
41201;SDS011;26936;50.524;8.684;2023-09-18T07:57:03;7.13;;;3.37;;
41201;SDS011;26936;50.524;8.684;2023-09-18T07:59:29;12.30;;;4.05;;
41201;SDS011;26936;50.524;8.684;2023-09-18T08:01:55;9.60;;;3.58;;
41201;SDS011;26936;50.524;8.684;2023-09-18T08:04:20;8.77;;;3.90;;
41201;SDS011;26936;50.524;8.684;2023-09-18T08:06:46;13.25;;;3.78;;
41201;SDS011;26936;50.524;8.684;2023-09-18T08:09:12;12.60;;;4.00;;
41201;SDS011;26936;50.524;8.684;2023-09-18T08:11:40;8.57;;;3.15;;
41201;SDS011;26936;50.524;8.684;2023-09-18T08:14:07;10.32;;;3.60;;
41201;SDS011;26936;50.524;8.684;2023-09-18T08:16:33;9.65;;;3.40;;
41201;SDS011;26936;50.524;8.684;2023-09-18T08:19:00;8.80;;;3.10;;
41201;SDS011;26936;50.524;8.684;2023-09-18T08:21:26;9.52;;;3.15;;
41201;SDS011;26936;50.524;8.684;2023-09-18T08:23:54;10.90;;;3.15;;
41201;SDS011;26936;50.524;8.684;2023-09-18T08:26:19;9.60;;;3.08;;
41201;SDS011;26936;50.524;8.684;2023-09-18T08:28:44;8.70;;;2.60;;
41201;SDS011;26936;50.524;8.684;2023-09-18T08:31:09;10.13;;;3.03;;
41201;SDS011;26936;50.524;8.684;2023-09-18T08:33:35;7.75;;;2.35;;
41201;SDS011;26936;50.524;8.684;2023-09-18T08:36:01;10.10;;;2.80;;
41201;SDS011;26936;50.524;8.684;2023-09-18T08:38:26;7.82;;;2.17;;
41201;SDS011;26936;50.524;8.684;2023-09-18T08:40:53;7.72;;;1.73;;
41201;SDS011;26936;50.524;8.684;2023-09-18T08:43:19;12.43;;;2.08;;
41201;SDS011;26936;50.524;8.684;2023-09-18T08:45:46;9.25;;;2.08;;
41201;SDS011;26936;50.524;8.684;2023-09-18T08:48:19;7.78;;;2.10;;
41201;SDS011;26936;50.524;8.684;2023-09-18T08:50:45;7.57;;;2.10;;
41201;SDS011;26936;50.524;8.684;2023-09-18T08:53:12;5.53;;;1.63;;
41201;SDS011;26936;50.524;8.684;2023-09-18T08:55:37;11.75;;;2.50;;
41201;SDS011;26936;50.524;8.684;2023-09-18T08:58:03;11.05;;;2.20;;
41201;SDS011;26936;50.524;8.684;2023-09-18T09:00:28;8.18;;;1.92;;
41201;SDS011;26936;50.524;8.684;2023-09-18T09:02:54;7.57;;;2.13;;
41201;SDS011;26936;50.524;8.684;2023-09-18T09:05:20;7.78;;;1.77;;
41201;SDS011;26936;50.524;8.684;2023-09-18T09:07:46;5.40;;;1.73;;
41201;SDS011;26936;50.524;8.684;2023-09-18T09:10:11;6.40;;;1.90;;
41201;SDS011;26936;50.524;8.684;2023-09-18T09:15:19;7.18;;;1.92;;
41201;SDS011;26936;50.524;8.684;2023-09-18T09:17:46;8.52;;;2.00;;
41201;SDS011;26936;50.524;8.684;2023-09-18T09:20:12;5.88;;;1.85;;
41201;SDS011;26936;50.524;8.684;2023-09-18T09:22:38;4.03;;;2.00;;
41201;SDS011;26936;50.524;8.684;2023-09-18T09:25:19;5.88;;;1.98;;
41201;SDS011;26936;50.524;8.684;2023-09-18T09:27:46;7.55;;;1.73;;
41201;SDS011;26936;50.524;8.684;2023-09-18T09:30:13;10.75;;;2.65;;
41201;SDS011;26936;50.524;8.684;2023-09-18T09:32:44;6.13;;;1.90;;
41201;SDS011;26936;50.524;8.684;2023-09-18T09:35:18;7.95;;;2.00;;
41201;SDS011;26936;50.524;8.684;2023-09-18T09:37:47;5.88;;;1.80;;
41201;SDS011;26936;50.524;8.684;2023-09-18T09:40:15;7.75;;;2.08;;
41201;SDS011;26936;50.524;8.684;2023-09-18T09:42:41;8.18;;;2.00;;
41201;SDS011;26936;50.524;8.684;2023-09-18T09:45:11;6.63;;;1.83;;
41201;SDS011;26936;50.524;8.684;2023-09-18T09:50:14;7.47;;;1.73;;
41201;SDS011;26936;50.524;8.684;2023-09-18T09:52:44;9.25;;;1.90;;
41201;SDS011;26936;50.524;8.684;2023-09-18T09:58:04;8.25;;;1.70;;
41201;SDS011;26936;50.524;8.684;2023-09-18T10:03:09;7.38;;;1.90;;
41201;SDS011;26936;50.524;8.684;2023-09-18T10:05:37;7.15;;;2.33;;
41201;SDS011;26936;50.524;8.684;2023-09-18T10:08:06;4.38;;;1.80;;
41201;SDS011;26936;50.524;8.684;2023-09-18T10:10:36;7.43;;;1.73;;
41201;SDS011;26936;50.524;8.684;2023-09-18T10:13:09;5.10;;;1.70;;
41201;SDS011;26936;50.524;8.684;2023-09-18T10:15:37;4.15;;;1.83;;
41201;SDS011;26936;50.524;8.684;2023-09-18T10:18:04;5.75;;;1.83;;
41201;SDS011;26936;50.524;8.684;2023-09-18T10:20:33;5.00;;;1.88;;
41201;SDS011;26936;50.524;8.684;2023-09-18T10:23:09;4.93;;;1.63;;
41201;SDS011;26936;50.524;8.684;2023-09-18T10:25:56;5.22;;;2.40;;
41201;SDS011;26936;50.524;8.684;2023-09-18T10:28:28;6.25;;;1.90;;
41201;SDS011;26936;50.524;8.684;2023-09-18T10:30:56;6.95;;;1.70;;
41201;SDS011;26936;50.524;8.684;2023-09-18T10:33:22;4.07;;;1.88;;
41201;SDS011;26936;50.524;8.684;2023-09-18T10:35:48;5.88;;;1.80;;
41201;SDS011;26936;50.524;8.684;2023-09-18T10:38:15;3.33;;;1.60;;
41201;SDS011;26936;50.524;8.684;2023-09-18T10:40:41;4.45;;;1.60;;
41201;SDS011;26936;50.524;8.684;2023-09-18T10:43:08;4.63;;;1.88;;
41201;SDS011;26936;50.524;8.684;2023-09-18T10:45:36;3.70;;;1.50;;
41201;SDS011;26936;50.524;8.684;2023-09-18T10:48:02;4.88;;;1.83;;
41201;SDS011;26936;50.524;8.684;2023-09-18T10:50:29;5.30;;;1.60;;
41201;SDS011;26936;50.524;8.684;2023-09-18T10:52:56;7.50;;;2.13;;
41201;SDS011;26936;50.524;8.684;2023-09-18T10:55:23;5.45;;;1.60;;
41201;SDS011;26936;50.524;8.684;2023-09-18T10:57:53;7.05;;;2.10;;
41201;SDS011;26936;50.524;8.684;2023-09-18T11:00:20;3.22;;;1.60;;
41201;SDS011;26936;50.524;8.684;2023-09-18T11:02:51;5.28;;;1.90;;
41201;SDS011;26936;50.524;8.684;2023-09-18T11:05:28;5.65;;;1.60;;
41201;SDS011;26936;50.524;8.684;2023-09-18T11:11:02;4.13;;;1.63;;
41201;SDS011;26936;50.524;8.684;2023-09-18T11:13:38;4.22;;;1.65;;
41201;SDS011;26936;50.524;8.684;2023-09-18T11:18:52;3.35;;;1.90;;
41201;SDS011;26936;50.524;8.684;2023-09-18T11:21:39;3.28;;;1.60;;
41201;SDS011;26936;50.524;8.684;2023-09-18T11:24:11;5.20;;;1.77;;
41201;SDS011;26936;50.524;8.684;2023-09-18T11:26:41;4.82;;;2.10;;
41201;SDS011;26936;50.524;8.684;2023-09-18T11:29:09;6.40;;;1.90;;
41201;SDS011;26936;50.524;8.684;2023-09-18T11:31:46;4.38;;;1.98;;
41201;SDS011;26936;50.524;8.684;2023-09-18T11:34:36;4.80;;;1.98;;
41201;SDS011;26936;50.524;8.684;2023-09-18T11:37:01;4.47;;;2.13;;
41201;SDS011;26936;50.524;8.684;2023-09-18T11:39:43;5.57;;;2.38;;
41201;SDS011;26936;50.524;8.684;2023-09-18T11:42:14;6.32;;;1.75;;
41201;SDS011;26936;50.524;8.684;2023-09-18T11:44:43;4.05;;;1.83;;
41201;SDS011;26936;50.524;8.684;2023-09-18T11:47:12;3.92;;;1.83;;
41201;SDS011;26936;50.524;8.684;2023-09-18T11:49:46;7.50;;;1.92;;
41201;SDS011;26936;50.524;8.684;2023-09-18T11:52:22;4.43;;;1.60;;
41201;SDS011;26936;50.524;8.684;2023-09-18T11:54:48;5.57;;;2.00;;
41201;SDS011;26936;50.524;8.684;2023-09-18T11:57:14;4.28;;;1.90;;
41201;SDS011;26936;50.524;8.684;2023-09-18T11:59:42;4.53;;;2.13;;
41201;SDS011;26936;50.524;8.684;2023-09-18T12:02:24;4.13;;;1.90;;
41201;SDS011;26936;50.524;8.684;2023-09-18T12:05:25;2.90;;;1.80;;
41201;SDS011;26936;50.524;8.684;2023-09-18T12:07:51;4.85;;;2.08;;
41201;SDS011;26936;50.524;8.684;2023-09-18T12:10:18;7.43;;;1.80;;
41201;SDS011;26936;50.524;8.684;2023-09-18T12:12:46;3.08;;;1.85;;
41201;SDS011;26936;50.524;8.684;2023-09-18T12:15:12;4.38;;;2.05;;
41201;SDS011;26936;50.524;8.684;2023-09-18T12:17:40;6.88;;;2.13;;
41201;SDS011;26936;50.524;8.684;2023-09-18T12:20:05;3.53;;;2.00;;
41201;SDS011;26936;50.524;8.684;2023-09-18T12:22:31;5.15;;;2.42;;
41201;SDS011;26936;50.524;8.684;2023-09-18T12:25:09;2.33;;;1.92;;
41201;SDS011;26936;50.524;8.684;2023-09-18T12:27:43;3.40;;;2.25;;
41201;SDS011;26936;50.524;8.684;2023-09-18T12:30:09;4.18;;;2.20;;
41201;SDS011;26936;50.524;8.684;2023-09-18T12:32:36;2.92;;;2.10;;
41201;SDS011;26936;50.524;8.684;2023-09-18T12:35:07;4.30;;;2.00;;
41201;SDS011;26936;50.524;8.684;2023-09-18T12:37:34;7.38;;;2.40;;
41201;SDS011;26936;50.524;8.684;2023-09-18T12:40:00;4.95;;;2.13;;
41201;SDS011;26936;50.524;8.684;2023-09-18T12:42:25;3.05;;;1.90;;
41201;SDS011;26936;50.524;8.684;2023-09-18T12:44:52;2.95;;;1.80;;
41201;SDS011;26936;50.524;8.684;2023-09-18T12:47:18;3.28;;;1.60;;
41201;SDS011;26936;50.524;8.684;2023-09-18T12:49:43;3.40;;;1.77;;
41201;SDS011;26936;50.524;8.684;2023-09-18T12:52:08;6.17;;;1.87;;
41201;SDS011;26936;50.524;8.684;2023-09-18T12:57:05;6.05;;;1.75;;
41201;SDS011;26936;50.524;8.684;2023-09-18T12:59:32;3.25;;;1.65;;
41201;SDS011;26936;50.524;8.684;2023-09-18T13:01:58;4.32;;;1.90;;
41201;SDS011;26936;50.524;8.684;2023-09-18T13:04:24;4.95;;;1.73;;
41201;SDS011;26936;50.524;8.684;2023-09-18T13:07:06;2.67;;;1.67;;
41201;SDS011;26936;50.524;8.684;2023-09-18T13:12:00;3.55;;;2.00;;
41201;SDS011;26936;50.524;8.684;2023-09-18T13:14:25;1.63;;;1.42;;
41201;SDS011;26936;50.524;8.684;2023-09-18T13:16:51;3.35;;;1.70;;
41201;SDS011;26936;50.524;8.684;2023-09-18T13:19:17;3.03;;;1.83;;
41201;SDS011;26936;50.524;8.684;2023-09-18T13:21:47;3.72;;;1.77;;
41201;SDS011;26936;50.524;8.684;2023-09-18T13:24:26;3.17;;;1.98;;
41201;SDS011;26936;50.524;8.684;2023-09-18T13:26:55;2.47;;;1.80;;
41201;SDS011;26936;50.524;8.684;2023-09-18T13:29:23;4.28;;;1.70;;
41201;SDS011;26936;50.524;8.684;2023-09-18T13:31:48;5.60;;;1.85;;
41201;SDS011;26936;50.524;8.684;2023-09-18T13:34:14;3.30;;;1.65;;
41201;SDS011;26936;50.524;8.684;2023-09-18T13:36:42;2.97;;;1.70;;
41201;SDS011;26936;50.524;8.684;2023-09-18T13:39:08;2.13;;;1.60;;
41201;SDS011;26936;50.524;8.684;2023-09-18T13:41:33;3.53;;;1.93;;
41201;SDS011;26936;50.524;8.684;2023-09-18T13:43:58;4.00;;;1.63;;
41201;SDS011;26936;50.524;8.684;2023-09-18T13:46:24;7.30;;;2.00;;
41201;SDS011;26936;50.524;8.684;2023-09-18T13:48:49;3.57;;;1.37;;
41201;SDS011;26936;50.524;8.684;2023-09-18T13:51:14;4.17;;;1.40;;
41201;SDS011;26936;50.524;8.684;2023-09-18T13:53:39;2.05;;;1.40;;
41201;SDS011;26936;50.524;8.684;2023-09-18T13:56:06;2.00;;;1.40;;
41201;SDS011;26936;50.524;8.684;2023-09-18T13:58:31;3.53;;;1.80;;
41201;SDS011;26936;50.524;8.684;2023-09-18T14:00:57;7.53;;;1.83;;
41201;SDS011;26936;50.524;8.684;2023-09-18T14:03:22;3.00;;;1.70;;
41201;SDS011;26936;50.524;8.684;2023-09-18T14:05:48;4.13;;;2.15;;
41201;SDS011;26936;50.524;8.684;2023-09-18T14:08:14;3.55;;;1.80;;
41201;SDS011;26936;50.524;8.684;2023-09-18T14:10:39;3.93;;;2.07;;
41201;SDS011;26936;50.524;8.684;2023-09-18T14:13:05;4.70;;;2.10;;
41201;SDS011;26936;50.524;8.684;2023-09-18T14:15:30;4.47;;;1.90;;
41201;SDS011;26936;50.524;8.684;2023-09-18T14:17:55;2.80;;;1.65;;
41201;SDS011;26936;50.524;8.684;2023-09-18T14:20:20;3.57;;;1.70;;
41201;SDS011;26936;50.524;8.684;2023-09-18T14:22:46;5.20;;;1.98;;
41201;SDS011;26936;50.524;8.684;2023-09-18T14:25:14;3.85;;;1.75;;
41201;SDS011;26936;50.524;8.684;2023-09-18T14:27:40;3.78;;;1.65;;
41201;SDS011;26936;50.524;8.684;2023-09-18T14:30:06;6.47;;;1.85;;
41201;SDS011;26936;50.524;8.684;2023-09-18T14:32:32;3.85;;;1.50;;
41201;SDS011;26936;50.524;8.684;2023-09-18T14:34:58;5.65;;;1.67;;
41201;SDS011;26936;50.524;8.684;2023-09-18T14:37:26;1.95;;;1.23;;
41201;SDS011;26936;50.524;8.684;2023-09-18T14:39:52;3.28;;;1.20;;
41201;SDS011;26936;50.524;8.684;2023-09-18T14:42:17;2.17;;;1.13;;
41201;SDS011;26936;50.524;8.684;2023-09-18T14:44:42;3.77;;;1.40;;
41201;SDS011;26936;50.524;8.684;2023-09-18T14:47:10;2.90;;;1.17;;
41201;SDS011;26936;50.524;8.684;2023-09-18T14:49:36;3.28;;;1.40;;
41201;SDS011;26936;50.524;8.684;2023-09-18T14:52:02;2.08;;;0.82;;
41201;SDS011;26936;50.524;8.684;2023-09-18T14:54:28;3.30;;;1.00;;
41201;SDS011;26936;50.524;8.684;2023-09-18T14:56:53;2.33;;;1.10;;
41201;SDS011;26936;50.524;8.684;2023-09-18T14:59:19;1.90;;;0.90;;
41201;SDS011;26936;50.524;8.684;2023-09-18T15:01:44;2.63;;;1.20;;
41201;SDS011;26936;50.524;8.684;2023-09-18T15:04:09;2.28;;;1.00;;